sensor_id;sensor_type;location;lat;lon;timestamp;P1;durP1;ratioP1;P2;durP2;ratioP2
15454;SDS011;21057;51.024;7.540;2023-04-25T00:00:02;22.13;;;20.73;;
15454;SDS011;21057;51.024;7.540;2023-04-25T00:02:31;22.40;;;21.10;;
15454;SDS011;21057;51.024;7.540;2023-04-25T00:05:06;22.63;;;21.33;;
15454;SDS011;21057;51.024;7.540;2023-04-25T00:07:34;21.90;;;20.50;;
15454;SDS011;21057;51.024;7.540;2023-04-25T00:10:01;23.23;;;21.47;;
15454;SDS011;21057;51.024;7.540;2023-04-25T00:12:29;22.07;;;20.87;;
15454;SDS011;21057;51.024;7.540;2023-04-25T00:14:58;23.03;;;21.70;;
15454;SDS011;21057;51.024;7.540;2023-04-25T00:17:25;23.13;;;21.63;;
15454;SDS011;21057;51.024;7.540;2023-04-25T00:19:53;22.37;;;21.17;;
15454;SDS011;21057;51.024;7.540;2023-04-25T00:22:20;22.60;;;21.30;;
15454;SDS011;21057;51.024;7.540;2023-04-25T00:24:48;22.70;;;21.20;;
15454;SDS011;21057;51.024;7.540;2023-04-25T00:27:17;23.53;;;21.60;;
15454;SDS011;21057;51.024;7.540;2023-04-25T00:29:53;23.00;;;21.67;;
15454;SDS011;21057;51.024;7.540;2023-04-25T00:32:24;22.53;;;21.13;;
15454;SDS011;21057;51.024;7.540;2023-04-25T00:34:51;23.47;;;21.13;;
15454;SDS011;21057;51.024;7.540;2023-04-25T00:37:18;23.00;;;21.60;;
15454;SDS011;21057;51.024;7.540;2023-04-25T00:39:44;23.50;;;21.90;;
15454;SDS011;21057;51.024;7.540;2023-04-25T00:42:11;25.33;;;21.70;;
15454;SDS011;21057;51.024;7.540;2023-04-25T00:44:38;23.00;;;21.60;;
15454;SDS011;21057;51.024;7.540;2023-04-25T00:47:09;22.03;;;20.53;;
15454;SDS011;21057;51.024;7.540;2023-04-25T00:49:37;22.23;;;20.73;;
15454;SDS011;21057;51.024;7.540;2023-04-25T00:52:04;21.67;;;20.37;;
15454;SDS011;21057;51.024;7.540;2023-04-25T00:54:32;22.93;;;21.53;;
15454;SDS011;21057;51.024;7.540;2023-04-25T00:56:59;24.17;;;22.33;;
15454;SDS011;21057;51.024;7.540;2023-04-25T00:59:27;22.57;;;20.97;;
15454;SDS011;21057;51.024;7.540;2023-04-25T01:01:54;22.57;;;21.27;;
15454;SDS011;21057;51.024;7.540;2023-04-25T01:04:29;24.70;;;23.10;;
15454;SDS011;21057;51.024;7.540;2023-04-25T01:06:56;22.80;;;21.23;;
15454;SDS011;21057;51.024;7.540;2023-04-25T01:09:23;23.53;;;22.07;;
15454;SDS011;21057;51.024;7.540;2023-04-25T01:11:50;23.83;;;22.33;;
15454;SDS011;21057;51.024;7.540;2023-04-25T01:14:25;23.27;;;21.83;;
15454;SDS011;21057;51.024;7.540;2023-04-25T01:16:52;23.23;;;21.67;;
15454;SDS011;21057;51.024;7.540;2023-04-25T01:19:22;24.83;;;22.90;;
15454;SDS011;21057;51.024;7.540;2023-04-25T01:21:52;24.90;;;23.20;;
15454;SDS011;21057;51.024;7.540;2023-04-25T01:24:19;26.57;;;24.03;;
15454;SDS011;21057;51.024;7.540;2023-04-25T01:26:47;25.70;;;23.37;;
15454;SDS011;21057;51.024;7.540;2023-04-25T01:29:15;23.37;;;21.90;;
15454;SDS011;21057;51.024;7.540;2023-04-25T01:31:43;24.73;;;23.03;;
15454;SDS011;21057;51.024;7.540;2023-04-25T01:34:11;24.60;;;22.53;;
15454;SDS011;21057;51.024;7.540;2023-04-25T01:36:38;23.87;;;22.40;;
15454;SDS011;21057;51.024;7.540;2023-04-25T01:39:07;23.23;;;21.93;;
15454;SDS011;21057;51.024;7.540;2023-04-25T01:41:33;22.40;;;21.10;;
15454;SDS011;21057;51.024;7.540;2023-04-25T01:44:01;23.43;;;21.87;;
15454;SDS011;21057;51.024;7.540;2023-04-25T01:46:34;23.67;;;22.17;;
15454;SDS011;21057;51.024;7.540;2023-04-25T01:51:34;24.57;;;22.80;;
15454;SDS011;21057;51.024;7.540;2023-04-25T01:54:01;22.80;;;21.40;;
15454;SDS011;21057;51.024;7.540;2023-04-25T01:56:31;23.77;;;22.20;;
15454;SDS011;21057;51.024;7.540;2023-04-25T01:58:58;23.77;;;22.23;;
15454;SDS011;21057;51.024;7.540;2023-04-25T02:01:25;24.10;;;22.20;;
15454;SDS011;21057;51.024;7.540;2023-04-25T02:03:58;23.30;;;21.77;;
15454;SDS011;21057;51.024;7.540;2023-04-25T02:06:26;23.43;;;22.03;;
15454;SDS011;21057;51.024;7.540;2023-04-25T02:08:53;23.70;;;21.60;;
15454;SDS011;21057;51.024;7.540;2023-04-25T02:11:19;23.97;;;21.90;;
15454;SDS011;21057;51.024;7.540;2023-04-25T02:13:48;22.17;;;20.97;;
15454;SDS011;21057;51.024;7.540;2023-04-25T02:16:14;23.10;;;21.60;;
15454;SDS011;21057;51.024;7.540;2023-04-25T02:18:42;23.67;;;22.17;;
15454;SDS011;21057;51.024;7.540;2023-04-25T02:21:10;22.60;;;21.30;;
15454;SDS011;21057;51.024;7.540;2023-04-25T02:23:37;22.27;;;20.93;;
15454;SDS011;21057;51.024;7.540;2023-04-25T02:26:04;23.27;;;21.70;;
15454;SDS011;21057;51.024;7.540;2023-04-25T02:28:31;24.27;;;22.37;;
15454;SDS011;21057;51.024;7.540;2023-04-25T02:30:59;23.87;;;22.23;;
15454;SDS011;21057;51.024;7.540;2023-04-25T02:33:26;23.57;;;22.07;;
15454;SDS011;21057;51.024;7.540;2023-04-25T02:35:53;24.17;;;22.43;;
15454;SDS011;21057;51.024;7.540;2023-04-25T02:38:20;23.00;;;21.70;;
15454;SDS011;21057;51.024;7.540;2023-04-25T02:40:47;24.67;;;23.03;;
15454;SDS011;21057;51.024;7.540;2023-04-25T02:43:14;25.77;;;23.23;;
15454;SDS011;21057;51.024;7.540;2023-04-25T02:45:41;25.13;;;23.30;;
15454;SDS011;21057;51.024;7.540;2023-04-25T02:48:09;24.77;;;23.37;;
15454;SDS011;21057;51.024;7.540;2023-04-25T02:50:37;25.33;;;23.83;;
15454;SDS011;21057;51.024;7.540;2023-04-25T02:53:04;23.60;;;22.20;;
15454;SDS011;21057;51.024;7.540;2023-04-25T02:55:31;25.60;;;22.90;;
15454;SDS011;21057;51.024;7.540;2023-04-25T02:58:00;22.70;;;21.37;;
15454;SDS011;21057;51.024;7.540;2023-04-25T03:00:32;22.60;;;21.37;;
15454;SDS011;21057;51.024;7.540;2023-04-25T03:02:59;24.13;;;22.73;;
15454;SDS011;21057;51.024;7.540;2023-04-25T03:05:27;23.93;;;22.33;;
15454;SDS011;21057;51.024;7.540;2023-04-25T03:08:05;23.70;;;22.30;;
15454;SDS011;21057;51.024;7.540;2023-04-25T03:10:41;22.93;;;21.63;;
15454;SDS011;21057;51.024;7.540;2023-04-25T03:13:08;23.63;;;22.23;;
15454;SDS011;21057;51.024;7.540;2023-04-25T03:15:40;22.33;;;21.03;;
15454;SDS011;21057;51.024;7.540;2023-04-25T03:18:07;23.30;;;21.77;;
15454;SDS011;21057;51.024;7.540;2023-04-25T03:20:35;24.03;;;22.53;;
15454;SDS011;21057;51.024;7.540;2023-04-25T03:23:06;23.57;;;22.00;;
15454;SDS011;21057;51.024;7.540;2023-04-25T03:25:33;25.47;;;23.90;;
15454;SDS011;21057;51.024;7.540;2023-04-25T03:28:00;25.60;;;23.03;;
15454;SDS011;21057;51.024;7.540;2023-04-25T03:30:26;26.10;;;24.27;;
15454;SDS011;21057;51.024;7.540;2023-04-25T03:32:53;26.10;;;24.00;;
15454;SDS011;21057;51.024;7.540;2023-04-25T03:35:20;24.93;;;23.13;;
15454;SDS011;21057;51.024;7.540;2023-04-25T03:37:58;26.83;;;24.80;;
15454;SDS011;21057;51.024;7.540;2023-04-25T03:40:26;26.27;;;24.67;;
15454;SDS011;21057;51.024;7.540;2023-04-25T03:42:53;26.03;;;23.80;;
15454;SDS011;21057;51.024;7.540;2023-04-25T03:45:20;26.90;;;24.93;;
15454;SDS011;21057;51.024;7.540;2023-04-25T03:47:47;26.53;;;24.60;;
15454;SDS011;21057;51.024;7.540;2023-04-25T03:50:14;26.70;;;24.50;;
15454;SDS011;21057;51.024;7.540;2023-04-25T03:52:42;26.63;;;24.43;;
15454;SDS011;21057;51.024;7.540;2023-04-25T03:55:10;25.57;;;23.97;;
15454;SDS011;21057;51.024;7.540;2023-04-25T03:57:37;25.47;;;23.47;;
15454;SDS011;21057;51.024;7.540;2023-04-25T04:00:17;27.53;;;24.87;;
15454;SDS011;21057;51.024;7.540;2023-04-25T04:02:44;26.47;;;24.50;;
15454;SDS011;21057;51.024;7.540;2023-04-25T04:08:02;26.50;;;24.77;;
15454;SDS011;21057;51.024;7.540;2023-04-25T04:10:30;26.67;;;25.07;;
15454;SDS011;21057;51.024;7.540;2023-04-25T04:12:57;27.23;;;25.33;;
15454;SDS011;21057;51.024;7.540;2023-04-25T04:15:24;27.13;;;24.87;;
15454;SDS011;21057;51.024;7.540;2023-04-25T04:17:51;28.53;;;26.47;;
15454;SDS011;21057;51.024;7.540;2023-04-25T04:20:19;28.33;;;26.03;;
15454;SDS011;21057;51.024;7.540;2023-04-25T04:22:46;26.63;;;25.03;;
15454;SDS011;21057;51.024;7.540;2023-04-25T04:25:14;27.03;;;25.10;;
15454;SDS011;21057;51.024;7.540;2023-04-25T04:27:42;27.37;;;25.10;;
15454;SDS011;21057;51.024;7.540;2023-04-25T04:30:10;26.40;;;24.53;;
15454;SDS011;21057;51.024;7.540;2023-04-25T04:32:37;30.57;;;28.03;;
15454;SDS011;21057;51.024;7.540;2023-04-25T04:35:04;26.73;;;24.93;;
15454;SDS011;21057;51.024;7.540;2023-04-25T04:37:32;27.27;;;25.37;;
15454;SDS011;21057;51.024;7.540;2023-04-25T04:39:59;28.17;;;26.17;;
15454;SDS011;21057;51.024;7.540;2023-04-25T04:42:30;29.17;;;26.97;;
15454;SDS011;21057;51.024;7.540;2023-04-25T04:47:48;26.77;;;25.17;;
15454;SDS011;21057;51.024;7.540;2023-04-25T04:50:15;27.43;;;25.67;;
15454;SDS011;21057;51.024;7.540;2023-04-25T04:52:43;28.67;;;26.43;;
15454;SDS011;21057;51.024;7.540;2023-04-25T04:55:10;26.83;;;25.07;;
15454;SDS011;21057;51.024;7.540;2023-04-25T04:57:36;26.80;;;25.03;;
15454;SDS011;21057;51.024;7.540;2023-04-25T05:00:05;27.77;;;25.60;;
15454;SDS011;21057;51.024;7.540;2023-04-25T05:02:37;28.93;;;27.03;;
15454;SDS011;21057;51.024;7.540;2023-04-25T05:05:05;28.50;;;26.43;;
15454;SDS011;21057;51.024;7.540;2023-04-25T05:07:32;28.77;;;26.37;;
15454;SDS011;21057;51.024;7.540;2023-04-25T05:10:16;28.90;;;26.87;;
15454;SDS011;21057;51.024;7.540;2023-04-25T05:12:43;27.90;;;25.53;;
15454;SDS011;21057;51.024;7.540;2023-04-25T05:15:10;27.70;;;26.00;;
15454;SDS011;21057;51.024;7.540;2023-04-25T05:17:39;28.90;;;26.83;;
15454;SDS011;21057;51.024;7.540;2023-04-25T05:20:14;28.13;;;25.73;;
15454;SDS011;21057;51.024;7.540;2023-04-25T05:22:41;26.03;;;24.17;;
15454;SDS011;21057;51.024;7.540;2023-04-25T05:25:08;25.17;;;23.37;;
15454;SDS011;21057;51.024;7.540;2023-04-25T05:27:35;25.43;;;23.40;;
15454;SDS011;21057;51.024;7.540;2023-04-25T05:30:02;25.80;;;24.00;;
15454;SDS011;21057;51.024;7.540;2023-04-25T05:32:30;28.43;;;25.83;;
15454;SDS011;21057;51.024;7.540;2023-04-25T05:34:59;27.07;;;24.63;;
15454;SDS011;21057;51.024;7.540;2023-04-25T05:37:26;26.80;;;25.00;;
15454;SDS011;21057;51.024;7.540;2023-04-25T05:39:54;28.27;;;25.23;;
15454;SDS011;21057;51.024;7.540;2023-04-25T05:42:20;25.33;;;23.57;;
15454;SDS011;21057;51.024;7.540;2023-04-25T05:44:47;26.07;;;23.97;;
15454;SDS011;21057;51.024;7.540;2023-04-25T05:47:15;25.80;;;23.97;;
15454;SDS011;21057;51.024;7.540;2023-04-25T05:49:42;26.73;;;24.20;;
15454;SDS011;21057;51.024;7.540;2023-04-25T05:52:10;26.70;;;24.90;;
15454;SDS011;21057;51.024;7.540;2023-04-25T05:54:38;25.93;;;24.17;;
15454;SDS011;21057;51.024;7.540;2023-04-25T05:57:05;26.87;;;24.17;;
15454;SDS011;21057;51.024;7.540;2023-04-25T05:59:32;25.60;;;23.30;;
15454;SDS011;21057;51.024;7.540;2023-04-25T06:01:59;25.33;;;23.43;;
15454;SDS011;21057;51.024;7.540;2023-04-25T06:04:39;26.23;;;23.83;;
15454;SDS011;21057;51.024;7.540;2023-04-25T06:07:06;25.57;;;23.40;;
15454;SDS011;21057;51.024;7.540;2023-04-25T06:09:36;24.50;;;22.70;;
15454;SDS011;21057;51.024;7.540;2023-04-25T06:12:04;25.40;;;23.23;;
15454;SDS011;21057;51.024;7.540;2023-04-25T06:14:31;25.87;;;23.93;;
15454;SDS011;21057;51.024;7.540;2023-04-25T06:16:58;26.27;;;24.23;;
15454;SDS011;21057;51.024;7.540;2023-04-25T06:19:31;25.90;;;24.03;;
15454;SDS011;21057;51.024;7.540;2023-04-25T06:21:58;25.90;;;24.00;;
15454;SDS011;21057;51.024;7.540;2023-04-25T06:24:25;27.07;;;24.50;;
15454;SDS011;21057;51.024;7.540;2023-04-25T06:26:53;26.30;;;24.40;;
15454;SDS011;21057;51.024;7.540;2023-04-25T06:29:20;24.43;;;22.63;;
15454;SDS011;21057;51.024;7.540;2023-04-25T06:31:47;26.27;;;23.63;;
15454;SDS011;21057;51.024;7.540;2023-04-25T06:34:14;24.67;;;22.97;;
15454;SDS011;21057;51.024;7.540;2023-04-25T06:36:49;23.70;;;22.20;;
15454;SDS011;21057;51.024;7.540;2023-04-25T06:39:18;23.50;;;21.60;;
15454;SDS011;21057;51.024;7.540;2023-04-25T06:41:52;23.10;;;21.40;;
15454;SDS011;21057;51.024;7.540;2023-04-25T06:49:28;24.20;;;22.60;;
15454;SDS011;21057;51.024;7.540;2023-04-25T06:51:57;24.17;;;22.57;;
15454;SDS011;21057;51.024;7.540;2023-04-25T06:54:30;24.30;;;22.60;;
15454;SDS011;21057;51.024;7.540;2023-04-25T06:56:58;23.30;;;21.90;;
15454;SDS011;21057;51.024;7.540;2023-04-25T06:59:26;24.33;;;22.40;;
15454;SDS011;21057;51.024;7.540;2023-04-25T07:01:53;24.30;;;22.30;;
15454;SDS011;21057;51.024;7.540;2023-04-25T07:04:29;24.63;;;22.33;;
15454;SDS011;21057;51.024;7.540;2023-04-25T07:06:56;24.00;;;22.40;;
15454;SDS011;21057;51.024;7.540;2023-04-25T07:09:25;24.53;;;22.57;;
15454;SDS011;21057;51.024;7.540;2023-04-25T07:12:01;23.83;;;22.07;;
15454;SDS011;21057;51.024;7.540;2023-04-25T07:14:28;25.17;;;22.83;;
15454;SDS011;21057;51.024;7.540;2023-04-25T07:16:56;24.27;;;22.63;;
15454;SDS011;21057;51.024;7.540;2023-04-25T07:19:24;23.40;;;21.80;;
15454;SDS011;21057;51.024;7.540;2023-04-25T07:21:57;23.87;;;22.07;;
15454;SDS011;21057;51.024;7.540;2023-04-25T07:24:24;23.27;;;21.40;;
15454;SDS011;21057;51.024;7.540;2023-04-25T07:26:51;24.43;;;22.63;;
15454;SDS011;21057;51.024;7.540;2023-04-25T07:29:26;22.47;;;21.07;;
15454;SDS011;21057;51.024;7.540;2023-04-25T07:31:56;25.90;;;23.33;;
15454;SDS011;21057;51.024;7.540;2023-04-25T07:34:23;25.60;;;22.90;;
15454;SDS011;21057;51.024;7.540;2023-04-25T07:36:58;24.43;;;22.30;;
15454;SDS011;21057;51.024;7.540;2023-04-25T07:39:32;24.57;;;22.20;;
15454;SDS011;21057;51.024;7.540;2023-04-25T07:42:03;24.20;;;22.37;;
15454;SDS011;21057;51.024;7.540;2023-04-25T07:44:39;23.87;;;21.90;;
15454;SDS011;21057;51.024;7.540;2023-04-25T07:47:09;23.33;;;21.47;;
15454;SDS011;21057;51.024;7.540;2023-04-25T07:49:52;23.40;;;21.80;;
15454;SDS011;21057;51.024;7.540;2023-04-25T07:52:21;23.57;;;21.80;;
15454;SDS011;21057;51.024;7.540;2023-04-25T07:54:50;22.90;;;21.10;;
15454;SDS011;21057;51.024;7.540;2023-04-25T07:57:17;23.10;;;21.30;;
15454;SDS011;21057;51.024;7.540;2023-04-25T07:59:47;22.57;;;20.97;;
15454;SDS011;21057;51.024;7.540;2023-04-25T08:02:28;23.03;;;21.53;;
15454;SDS011;21057;51.024;7.540;2023-04-25T08:04:55;22.80;;;21.30;;
15454;SDS011;21057;51.024;7.540;2023-04-25T08:07:29;22.17;;;20.63;;
15454;SDS011;21057;51.024;7.540;2023-04-25T08:12:32;22.87;;;21.27;;
15454;SDS011;21057;51.024;7.540;2023-04-25T08:15:03;22.80;;;21.20;;
15454;SDS011;21057;51.024;7.540;2023-04-25T08:17:31;26.57;;;21.27;;
15454;SDS011;21057;51.024;7.540;2023-04-25T08:20:00;21.63;;;20.23;;
15454;SDS011;21057;51.024;7.540;2023-04-25T08:22:30;22.50;;;20.43;;
15454;SDS011;21057;51.024;7.540;2023-04-25T08:25:05;21.57;;;19.97;;
15454;SDS011;21057;51.024;7.540;2023-04-25T08:27:44;21.80;;;20.30;;
15454;SDS011;21057;51.024;7.540;2023-04-25T08:30:13;22.40;;;20.80;;
15454;SDS011;21057;51.024;7.540;2023-04-25T08:32:40;21.97;;;20.37;;
15454;SDS011;21057;51.024;7.540;2023-04-25T08:35:07;22.90;;;21.23;;
15454;SDS011;21057;51.024;7.540;2023-04-25T08:37:45;22.37;;;20.63;;
15454;SDS011;21057;51.024;7.540;2023-04-25T08:40:16;23.50;;;21.37;;
15454;SDS011;21057;51.024;7.540;2023-04-25T08:42:42;22.47;;;20.97;;
15454;SDS011;21057;51.024;7.540;2023-04-25T08:45:13;22.07;;;20.47;;
15454;SDS011;21057;51.024;7.540;2023-04-25T08:47:41;22.60;;;20.97;;
15454;SDS011;21057;51.024;7.540;2023-04-25T08:50:11;21.93;;;20.43;;
15454;SDS011;21057;51.024;7.540;2023-04-25T08:52:39;23.30;;;21.20;;
15454;SDS011;21057;51.024;7.540;2023-04-25T08:55:13;21.70;;;20.30;;
15454;SDS011;21057;51.024;7.540;2023-04-25T08:57:40;22.33;;;20.83;;
15454;SDS011;21057;51.024;7.540;2023-04-25T09:00:09;22.00;;;20.40;;
15454;SDS011;21057;51.024;7.540;2023-04-25T09:02:38;21.60;;;20.10;;
15454;SDS011;21057;51.024;7.540;2023-04-25T09:05:06;22.17;;;20.20;;
15454;SDS011;21057;51.024;7.540;2023-04-25T09:07:34;22.90;;;20.97;;
15454;SDS011;21057;51.024;7.540;2023-04-25T09:10:08;21.90;;;20.40;;
15454;SDS011;21057;51.024;7.540;2023-04-25T09:12:43;21.90;;;20.50;;
15454;SDS011;21057;51.024;7.540;2023-04-25T09:15:17;22.60;;;21.10;;
15454;SDS011;21057;51.024;7.540;2023-04-25T09:17:45;21.77;;;20.37;;
15454;SDS011;21057;51.024;7.540;2023-04-25T09:20:13;23.30;;;21.73;;
15454;SDS011;21057;51.024;7.540;2023-04-25T09:22:41;22.33;;;20.60;;
15454;SDS011;21057;51.024;7.540;2023-04-25T09:28:06;22.83;;;21.37;;
15454;SDS011;21057;51.024;7.540;2023-04-25T09:30:34;22.30;;;20.80;;
15454;SDS011;21057;51.024;7.540;2023-04-25T09:33:08;21.57;;;20.07;;
15454;SDS011;21057;51.024;7.540;2023-04-25T09:35:36;21.53;;;20.03;;
15454;SDS011;21057;51.024;7.540;2023-04-25T09:38:16;21.97;;;20.47;;
15454;SDS011;21057;51.024;7.540;2023-04-25T09:40:47;20.83;;;19.40;;
15454;SDS011;21057;51.024;7.540;2023-04-25T09:43:21;21.73;;;20.23;;
15454;SDS011;21057;51.024;7.540;2023-04-25T09:46:00;21.07;;;19.47;;
15454;SDS011;21057;51.024;7.540;2023-04-25T09:48:28;21.93;;;20.30;;
15454;SDS011;21057;51.024;7.540;2023-04-25T09:51:05;21.40;;;19.53;;
15454;SDS011;21057;51.024;7.540;2023-04-25T09:53:33;21.57;;;20.17;;
15454;SDS011;21057;51.024;7.540;2023-04-25T09:56:00;22.30;;;20.70;;
15454;SDS011;21057;51.024;7.540;2023-04-25T09:58:33;22.87;;;20.90;;
15454;SDS011;21057;51.024;7.540;2023-04-25T10:01:04;22.10;;;20.37;;
15454;SDS011;21057;51.024;7.540;2023-04-25T10:03:34;22.53;;;20.87;;
15454;SDS011;21057;51.024;7.540;2023-04-25T10:06:11;20.43;;;19.13;;
15454;SDS011;21057;51.024;7.540;2023-04-25T10:08:52;21.30;;;19.90;;
15454;SDS011;21057;51.024;7.540;2023-04-25T10:11:21;20.90;;;19.60;;
15454;SDS011;21057;51.024;7.540;2023-04-25T10:13:52;21.40;;;20.00;;
15454;SDS011;21057;51.024;7.540;2023-04-25T10:16:21;21.20;;;19.47;;
15454;SDS011;21057;51.024;7.540;2023-04-25T10:18:50;20.50;;;19.20;;
15454;SDS011;21057;51.024;7.540;2023-04-25T10:21:17;21.10;;;19.70;;
15454;SDS011;21057;51.024;7.540;2023-04-25T10:23:45;20.60;;;19.20;;
15454;SDS011;21057;51.024;7.540;2023-04-25T10:26:13;20.70;;;19.40;;
15454;SDS011;21057;51.024;7.540;2023-04-25T10:28:55;22.70;;;20.97;;
15454;SDS011;21057;51.024;7.540;2023-04-25T10:31:24;21.93;;;20.23;;
15454;SDS011;21057;51.024;7.540;2023-04-25T10:33:54;21.20;;;19.80;;
15454;SDS011;21057;51.024;7.540;2023-04-25T10:36:22;21.07;;;19.77;;
15454;SDS011;21057;51.024;7.540;2023-04-25T10:38:53;21.60;;;20.03;;
15454;SDS011;21057;51.024;7.540;2023-04-25T10:41:21;21.37;;;19.87;;
15454;SDS011;21057;51.024;7.540;2023-04-25T10:43:50;22.17;;;20.70;;
15454;SDS011;21057;51.024;7.540;2023-04-25T10:46:28;21.77;;;20.27;;
15454;SDS011;21057;51.024;7.540;2023-04-25T10:48:59;20.57;;;19.20;;
15454;SDS011;21057;51.024;7.540;2023-04-25T10:51:27;20.60;;;19.10;;
15454;SDS011;21057;51.024;7.540;2023-04-25T10:53:59;21.23;;;19.57;;
15454;SDS011;21057;51.024;7.540;2023-04-25T10:56:28;21.70;;;20.30;;
15454;SDS011;21057;51.024;7.540;2023-04-25T10:59:06;20.87;;;19.57;;
15454;SDS011;21057;51.024;7.540;2023-04-25T11:01:37;21.80;;;20.30;;
15454;SDS011;21057;51.024;7.540;2023-04-25T11:04:24;21.70;;;20.40;;
15454;SDS011;21057;51.024;7.540;2023-04-25T11:06:58;21.67;;;20.03;;
15454;SDS011;21057;51.024;7.540;2023-04-25T11:09:33;20.93;;;19.63;;
15454;SDS011;21057;51.024;7.540;2023-04-25T11:12:00;22.00;;;20.40;;
15454;SDS011;21057;51.024;7.540;2023-04-25T11:14:30;21.23;;;19.93;;
15454;SDS011;21057;51.024;7.540;2023-04-25T11:16:57;21.60;;;20.30;;
15454;SDS011;21057;51.024;7.540;2023-04-25T11:19:27;21.30;;;19.57;;
15454;SDS011;21057;51.024;7.540;2023-04-25T11:21:55;20.97;;;19.70;;
15454;SDS011;21057;51.024;7.540;2023-04-25T11:24:25;21.27;;;19.83;;
15454;SDS011;21057;51.024;7.540;2023-04-25T11:26:55;21.10;;;19.80;;
15454;SDS011;21057;51.024;7.540;2023-04-25T11:29:26;21.03;;;19.73;;
15454;SDS011;21057;51.024;7.540;2023-04-25T11:34:43;20.60;;;19.30;;
15454;SDS011;21057;51.024;7.540;2023-04-25T11:37:11;20.97;;;19.47;;
15454;SDS011;21057;51.024;7.540;2023-04-25T11:42:12;22.10;;;20.57;;
15454;SDS011;21057;51.024;7.540;2023-04-25T11:44:47;21.43;;;20.00;;
15454;SDS011;21057;51.024;7.540;2023-04-25T11:47:14;24.20;;;20.77;;
15454;SDS011;21057;51.024;7.540;2023-04-25T11:49:42;22.43;;;20.77;;
15454;SDS011;21057;51.024;7.540;2023-04-25T11:52:15;21.23;;;19.90;;
15454;SDS011;21057;51.024;7.540;2023-04-25T11:54:48;21.90;;;20.30;;
15454;SDS011;21057;51.024;7.540;2023-04-25T11:57:15;21.60;;;20.20;;
15454;SDS011;21057;51.024;7.540;2023-04-25T11:59:46;20.73;;;19.43;;
15454;SDS011;21057;51.024;7.540;2023-04-25T12:02:23;22.20;;;20.60;;
15454;SDS011;21057;51.024;7.540;2023-04-25T12:04:55;21.50;;;20.10;;
15454;SDS011;21057;51.024;7.540;2023-04-25T12:07:31;20.90;;;19.60;;
15454;SDS011;21057;51.024;7.540;2023-04-25T12:10:04;22.10;;;20.60;;
15454;SDS011;21057;51.024;7.540;2023-04-25T12:12:41;21.10;;;19.70;;
15454;SDS011;21057;51.024;7.540;2023-04-25T12:15:12;21.03;;;19.53;;
15454;SDS011;21057;51.024;7.540;2023-04-25T12:17:42;20.73;;;19.43;;
15454;SDS011;21057;51.024;7.540;2023-04-25T12:20:13;21.37;;;19.97;;
15454;SDS011;21057;51.024;7.540;2023-04-25T12:22:41;21.67;;;20.10;;
15454;SDS011;21057;51.024;7.540;2023-04-25T12:28:09;21.17;;;19.83;;
15454;SDS011;21057;51.024;7.540;2023-04-25T12:30:53;22.00;;;20.07;;
15454;SDS011;21057;51.024;7.540;2023-04-25T12:33:29;21.83;;;20.23;;
15454;SDS011;21057;51.024;7.540;2023-04-25T12:36:01;23.67;;;21.60;;
15454;SDS011;21057;51.024;7.540;2023-04-25T12:38:35;21.70;;;20.30;;
15454;SDS011;21057;51.024;7.540;2023-04-25T12:41:04;21.90;;;20.20;;
15454;SDS011;21057;51.024;7.540;2023-04-25T12:43:31;21.50;;;20.20;;
15454;SDS011;21057;51.024;7.540;2023-04-25T12:45:59;21.07;;;19.77;;
15454;SDS011;21057;51.024;7.540;2023-04-25T12:48:26;21.50;;;20.20;;
15454;SDS011;21057;51.024;7.540;2023-04-25T12:50:56;21.60;;;20.30;;
15454;SDS011;21057;51.024;7.540;2023-04-25T12:53:25;21.27;;;19.90;;
15454;SDS011;21057;51.024;7.540;2023-04-25T12:55:52;23.17;;;21.17;;
15454;SDS011;21057;51.024;7.540;2023-04-25T12:58:22;21.00;;;19.70;;
15454;SDS011;21057;51.024;7.540;2023-04-25T13:00:49;21.40;;;20.00;;
15454;SDS011;21057;51.024;7.540;2023-04-25T13:03:16;21.53;;;20.17;;
15454;SDS011;21057;51.024;7.540;2023-04-25T13:05:43;20.97;;;19.53;;
15454;SDS011;21057;51.024;7.540;2023-04-25T13:08:10;21.83;;;20.23;;
15454;SDS011;21057;51.024;7.540;2023-04-25T13:10:41;21.77;;;20.27;;
15454;SDS011;21057;51.024;7.540;2023-04-25T13:13:08;21.87;;;20.30;;
15454;SDS011;21057;51.024;7.540;2023-04-25T13:15:36;20.83;;;19.47;;
15454;SDS011;21057;51.024;7.540;2023-04-25T13:18:03;20.67;;;19.37;;
15454;SDS011;21057;51.024;7.540;2023-04-25T13:20:30;20.97;;;19.67;;
15454;SDS011;21057;51.024;7.540;2023-04-25T13:23:00;20.80;;;19.40;;
15454;SDS011;21057;51.024;7.540;2023-04-25T13:25:27;20.57;;;19.27;;
15454;SDS011;21057;51.024;7.540;2023-04-25T13:27:56;20.93;;;19.50;;
15454;SDS011;21057;51.024;7.540;2023-04-25T13:30:31;20.50;;;19.20;;
15454;SDS011;21057;51.024;7.540;2023-04-25T13:32:58;21.20;;;19.57;;
15454;SDS011;21057;51.024;7.540;2023-04-25T13:35:28;20.43;;;19.07;;
15454;SDS011;21057;51.024;7.540;2023-04-25T13:37:56;20.33;;;19.03;;
15454;SDS011;21057;51.024;7.540;2023-04-25T13:43:03;21.13;;;19.70;;
15454;SDS011;21057;51.024;7.540;2023-04-25T13:45:35;20.17;;;18.93;;
15454;SDS011;21057;51.024;7.540;2023-04-25T13:48:08;20.77;;;19.37;;
15454;SDS011;21057;51.024;7.540;2023-04-25T13:50:36;21.80;;;20.00;;
15454;SDS011;21057;51.024;7.540;2023-04-25T13:53:09;20.43;;;19.20;;
15454;SDS011;21057;51.024;7.540;2023-04-25T13:55:37;21.30;;;19.63;;
15454;SDS011;21057;51.024;7.540;2023-04-25T13:58:05;21.70;;;19.60;;
15454;SDS011;21057;51.024;7.540;2023-04-25T14:00:35;20.43;;;19.07;;
15454;SDS011;21057;51.024;7.540;2023-04-25T14:03:04;20.47;;;19.17;;
15454;SDS011;21057;51.024;7.540;2023-04-25T14:05:32;21.30;;;20.00;;
15454;SDS011;21057;51.024;7.540;2023-04-25T14:08:03;22.23;;;20.83;;
15454;SDS011;21057;51.024;7.540;2023-04-25T14:10:31;21.60;;;20.30;;
15454;SDS011;21057;51.024;7.540;2023-04-25T14:12:57;21.50;;;20.20;;
15454;SDS011;21057;51.024;7.540;2023-04-25T14:15:34;22.10;;;20.50;;
15454;SDS011;21057;51.024;7.540;2023-04-25T14:18:01;20.80;;;19.50;;
15454;SDS011;21057;51.024;7.540;2023-04-25T14:20:29;20.97;;;19.67;;
15454;SDS011;21057;51.024;7.540;2023-04-25T14:22:56;21.40;;;20.00;;
15454;SDS011;21057;51.024;7.540;2023-04-25T14:25:24;20.63;;;19.33;;
15454;SDS011;21057;51.024;7.540;2023-04-25T14:27:51;20.97;;;19.57;;
15454;SDS011;21057;51.024;7.540;2023-04-25T14:30:29;20.80;;;19.40;;
15454;SDS011;21057;51.024;7.540;2023-04-25T14:35:43;20.30;;;19.00;;
15454;SDS011;21057;51.024;7.540;2023-04-25T14:38:10;19.53;;;18.33;;
15454;SDS011;21057;51.024;7.540;2023-04-25T14:40:37;19.77;;;18.57;;
15454;SDS011;21057;51.024;7.540;2023-04-25T14:43:04;20.40;;;18.70;;
15454;SDS011;21057;51.024;7.540;2023-04-25T14:45:31;20.47;;;18.90;;
15454;SDS011;21057;51.024;7.540;2023-04-25T14:47:57;19.73;;;18.53;;
15454;SDS011;21057;51.024;7.540;2023-04-25T14:50:26;20.03;;;18.40;;
15454;SDS011;21057;51.024;7.540;2023-04-25T14:52:53;20.03;;;18.70;;
15454;SDS011;21057;51.024;7.540;2023-04-25T14:58:02;21.43;;;19.60;;
15454;SDS011;21057;51.024;7.540;2023-04-25T15:03:22;21.30;;;20.00;;
15454;SDS011;21057;51.024;7.540;2023-04-25T15:05:59;20.83;;;19.53;;
15454;SDS011;21057;51.024;7.540;2023-04-25T15:08:26;21.20;;;19.90;;
15454;SDS011;21057;51.024;7.540;2023-04-25T15:11:03;20.57;;;19.27;;